createdAt,value
2023-04-17T00:03:50.632Z,1.08
2023-04-17T00:07:50.639Z,1.07
2023-04-17T00:11:50.619Z,1.06
2023-04-17T00:15:50.614Z,1.06
2023-04-17T00:19:50.613Z,1.08
2023-04-17T00:23:50.569Z,1.05
2023-04-17T00:27:50.586Z,1.08
2023-04-17T00:31:51.207Z,1.07
2023-04-17T00:35:51.112Z,1.07
2023-04-17T00:39:50.711Z,1.08
2023-04-17T00:43:50.713Z,1.06
2023-04-17T00:47:51.273Z,1.11
2023-04-17T00:51:51.124Z,1.07
2023-04-17T00:55:51.132Z,1.09
2023-04-17T00:59:50.795Z,1.08
2023-04-17T01:03:50.977Z,1.07
2023-04-17T01:07:51.115Z,1.08
2023-04-17T01:11:51.082Z,1.08
2023-04-17T01:15:51.153Z,1.10
2023-04-17T01:19:50.952Z,1.09
2023-04-17T01:23:50.963Z,1.08
2023-04-17T01:27:51.114Z,1.10
2023-04-17T01:31:51.161Z,1.09
2023-04-17T01:35:51.146Z,1.10
2023-04-17T01:39:51.037Z,1.10
2023-04-17T01:43:51.067Z,1.08
2023-04-17T01:47:51.163Z,1.07
2023-04-17T01:51:51.163Z,1.07
2023-04-17T01:55:51.690Z,1.09
2023-04-17T01:59:51.252Z,1.07
2023-04-17T02:03:51.753Z,1.08
2023-04-17T02:07:51.709Z,1.09
2023-04-17T02:11:51.402Z,1.08
2023-04-17T02:15:51.485Z,1.06
2023-04-17T02:19:51.525Z,1.08
2023-04-17T02:23:51.663Z,1.05
2023-04-17T02:27:51.659Z,1.03
2023-04-17T02:31:52.186Z,1.03
2023-04-17T02:35:51.759Z,1.03
2023-04-17T02:39:52.202Z,1.04
2023-04-17T02:43:51.811Z,1.04
2023-04-17T02:47:52.220Z,1.06
2023-04-17T02:51:52.200Z,1.05
2023-04-17T02:55:52.013Z,1.04
2023-04-17T02:59:52.176Z,1.05
2023-04-17T03:03:52.821Z,1.05
2023-04-17T03:07:52.165Z,1.05
2023-04-17T03:11:52.271Z,1.06
2023-04-17T03:15:52.312Z,1.05
2023-04-17T03:19:52.349Z,1.05
2023-04-17T03:23:52.685Z,1.03
2023-04-17T03:27:52.504Z,1.05
2023-04-17T03:31:52.839Z,1.02
2023-04-17T03:35:52.620Z,1.04
2023-04-17T03:39:52.685Z,1.01
2023-04-17T03:43:52.666Z,1.01
2023-04-17T03:47:53.255Z,1.02
2023-04-17T03:51:52.753Z,1.01
2023-04-17T03:55:52.778Z,1.02
2023-04-17T03:59:53.219Z,1.03
2023-04-17T04:03:53.098Z,1.02
2023-04-17T04:07:53.179Z,1.01
2023-04-17T04:11:53.003Z,1.02
2023-04-17T04:15:53.287Z,1.02
2023-04-17T04:19:53.220Z,1.03
2023-04-17T04:23:53.231Z,1.00
2023-04-17T04:27:53.703Z,1.00
2023-04-17T04:31:53.465Z,1.03
2023-04-17T04:35:53.729Z,1.00
2023-04-17T04:39:53.714Z,1.03
2023-04-17T04:43:53.721Z,1.01
2023-04-17T04:47:53.800Z,1.05
2023-04-17T04:51:53.572Z,1.03
2023-04-17T04:55:53.757Z,1.01
2023-04-17T04:59:53.743Z,1.01
2023-04-17T05:03:54.084Z,1.05
2023-04-17T05:07:54.253Z,1.01
2023-04-17T05:11:54.015Z,1.03
2023-04-17T05:15:54.262Z,1.03
2023-04-17T05:19:54.262Z,1.04
2023-04-17T05:23:54.224Z,1.03
2023-04-17T05:27:54.254Z,1.03
2023-04-17T05:31:53.880Z,1.03
2023-04-17T05:35:56.310Z,1.04
2023-04-17T05:39:54.229Z,1.04
2023-04-17T05:43:53.745Z,1.04
2023-04-17T05:47:53.817Z,1.03
2023-04-17T05:51:53.632Z,1.09
2023-04-17T05:55:53.714Z,1.11
2023-04-17T05:59:53.874Z,1.14
2023-04-17T06:03:53.772Z,1.15
2023-04-17T06:07:53.510Z,1.18
2023-04-17T06:11:53.756Z,1.19
2023-04-17T06:15:53.433Z,1.18
2023-04-17T06:19:53.396Z,1.20
2023-04-17T06:23:53.368Z,1.23
2023-04-17T06:27:53.321Z,1.23
2023-04-17T06:31:53.302Z,1.23
2023-04-17T06:35:53.269Z,1.23
2023-04-17T06:39:53.773Z,1.24
2023-04-17T06:43:53.498Z,1.26
2023-04-17T06:47:53.692Z,1.34
2023-04-17T06:51:53.899Z,1.39
2023-04-17T06:55:54.132Z,1.80
2023-04-17T06:59:54.305Z,5.22
2023-04-17T07:03:54.438Z,11.60
2023-04-17T07:07:54.274Z,18.15
2023-04-17T07:11:54.419Z,21.44
2023-04-17T07:15:54.465Z,28.55
2023-04-17T07:19:54.316Z,21.96
2023-04-17T07:23:54.280Z,17.75
2023-04-17T07:27:54.242Z,16.09
2023-04-17T07:31:54.372Z,14.57
2023-04-17T07:35:54.180Z,12.93
2023-04-17T07:39:54.148Z,11.52
2023-04-17T07:44:01.315Z,9.34
2023-04-17T07:47:54.208Z,8.58
2023-04-17T07:51:54.030Z,10.31
2023-04-17T07:55:53.979Z,6.24
2023-04-17T07:59:53.966Z,1.59
2023-04-17T08:03:54.257Z,1.04
2023-04-17T08:07:53.894Z,1.10
2023-04-17T08:11:57.450Z,0.96
2023-04-17T08:15:53.841Z,0.95
2023-04-17T08:19:53.770Z,1.10
2023-04-17T08:23:53.769Z,1.16
2023-04-17T08:27:53.701Z,1.33
2023-04-17T08:32:06.515Z,1.26
2023-04-17T08:35:54.687Z,1.18
2023-04-17T08:39:53.609Z,1.02
2023-04-17T08:43:53.540Z,2.02
2023-04-17T08:47:53.585Z,2.75
2023-04-17T08:51:53.481Z,3.21
2023-04-17T08:55:53.539Z,2.98
2023-04-17T08:59:53.801Z,4.09
2023-04-17T09:03:54.121Z,5.07
2023-04-17T09:07:53.987Z,5.70
2023-04-17T09:11:54.023Z,6.43
2023-04-17T09:15:54.047Z,6.71
2023-04-17T09:19:53.954Z,6.71
2023-04-17T09:23:53.931Z,6.99
2023-04-17T09:27:53.891Z,6.69
2023-04-17T09:31:53.903Z,6.94
2023-04-17T09:35:53.836Z,6.84
2023-04-17T09:39:53.773Z,6.43
2023-04-17T09:43:53.730Z,6.00
2023-04-17T09:47:53.856Z,5.10
2023-04-17T09:51:53.696Z,3.42
2023-04-17T09:55:53.708Z,1.26
2023-04-17T09:59:53.754Z,2.03
2023-04-17T10:03:54.014Z,2.11
2023-04-17T10:07:53.878Z,2.24
2023-04-17T10:11:53.894Z,2.32
2023-04-17T10:15:54.230Z,2.43
2023-04-17T10:19:54.049Z,2.38
2023-04-17T10:23:54.075Z,2.15
2023-04-17T10:27:54.001Z,1.86
2023-04-17T10:31:53.942Z,2.36
2023-04-17T10:35:54.015Z,2.37
2023-04-17T10:39:53.864Z,2.72
2023-04-17T10:43:53.832Z,1.80
2023-04-17T10:47:53.859Z,1.76
2023-04-17T10:51:53.738Z,1.55
2023-04-17T10:55:53.684Z,1.56
2023-04-17T10:59:53.681Z,1.82
2023-04-17T11:03:53.612Z,0.88
2023-04-17T11:07:53.580Z,0.51
2023-04-17T11:11:53.572Z,0.48
2023-04-17T11:15:53.553Z,0.69
2023-04-17T11:19:53.722Z,1.22
2023-04-17T11:23:53.800Z,1.62
2023-04-17T11:27:53.844Z,2.08
2023-04-17T11:32:01.509Z,2.37
2023-04-17T11:35:53.902Z,2.73
2023-04-17T11:39:53.841Z,3.38
2023-04-17T11:43:53.809Z,3.50
2023-04-17T11:47:53.788Z,3.40
2023-04-17T11:51:53.753Z,3.29
2023-04-17T11:55:53.686Z,3.18
2023-04-17T11:59:53.677Z,3.15
2023-04-17T12:03:53.842Z,3.07
2023-04-17T12:07:53.791Z,3.02
2023-04-17T12:11:53.929Z,2.94
2023-04-17T12:15:54.145Z,2.93
2023-04-17T12:19:54.286Z,2.83
2023-04-17T12:23:54.608Z,2.77
2023-04-17T12:27:54.509Z,2.76
2023-04-17T12:31:54.470Z,2.64
2023-04-17T12:35:54.524Z,2.64
2023-04-17T12:39:54.369Z,2.60
2023-04-17T12:43:54.357Z,2.55
2023-04-17T12:47:54.433Z,2.57
2023-04-17T12:51:54.254Z,2.40
2023-04-17T12:55:54.276Z,2.34
2023-04-17T12:59:54.207Z,2.29
2023-04-17T13:04:01.565Z,2.19
2023-04-17T13:07:54.134Z,2.26
2023-04-17T13:11:54.133Z,2.16
2023-04-17T13:15:54.065Z,2.14
2023-04-17T13:19:54.048Z,2.09
2023-04-17T13:23:54.223Z,2.00
2023-04-17T13:27:54.362Z,2.00
2023-04-17T13:31:54.477Z,1.94
2023-04-17T13:35:54.656Z,1.95
2023-04-17T13:39:54.910Z,1.97
2023-04-17T13:43:54.888Z,1.94
2023-04-17T13:47:54.845Z,1.87
2023-04-17T13:51:54.791Z,1.88
2023-04-17T13:55:54.766Z,1.81
2023-04-17T13:59:54.699Z,1.79
2023-04-17T14:03:54.838Z,1.78
2023-04-17T14:07:54.653Z,1.71
2023-04-17T14:11:54.607Z,1.65
2023-04-17T14:15:54.632Z,1.67
2023-04-17T14:19:54.568Z,1.60
2023-04-17T14:23:54.535Z,1.56
2023-04-17T14:27:54.486Z,1.53
2023-04-17T14:31:54.581Z,1.54
2023-04-17T14:35:54.411Z,1.49
2023-04-17T14:39:54.535Z,1.43
2023-04-17T14:43:54.354Z,1.40
2023-04-17T14:47:54.379Z,1.49
2023-04-17T14:51:54.285Z,1.43
2023-04-17T14:55:54.243Z,1.35
2023-04-17T14:59:54.333Z,1.35
2023-04-17T15:03:54.528Z,1.33
2023-04-17T15:07:54.219Z,1.33
2023-04-17T15:11:54.202Z,1.29
2023-04-17T15:15:54.181Z,1.29
2023-04-17T15:19:54.111Z,1.31
2023-04-17T15:23:54.108Z,1.30
2023-04-17T15:27:54.028Z,1.27
2023-04-17T15:31:54.063Z,1.28
2023-04-17T15:35:53.962Z,1.26
2023-04-17T15:39:54.033Z,1.24
2023-04-17T15:43:54.123Z,1.27
2023-04-17T15:47:54.082Z,1.25
2023-04-17T15:51:54.005Z,1.26
2023-04-17T15:55:53.952Z,1.25
2023-04-17T15:59:53.876Z,1.25
2023-04-17T16:03:54.111Z,1.19
2023-04-17T16:07:53.817Z,1.25
2023-04-17T16:11:53.822Z,1.22
2023-04-17T16:15:53.811Z,1.16
2023-04-17T16:19:53.761Z,1.20
2023-04-17T16:23:53.758Z,1.17
2023-04-17T16:27:53.750Z,1.19
2023-04-17T16:31:53.745Z,1.16
2023-04-17T16:35:53.658Z,1.15
2023-04-17T16:39:53.621Z,1.14
2023-04-17T16:43:53.585Z,1.10
2023-04-17T16:47:53.645Z,1.05
2023-04-17T16:51:53.498Z,1.00
2023-04-17T16:55:54.890Z,1.03
2023-04-17T16:59:53.441Z,1.04
2023-04-17T17:03:53.412Z,1.05
2023-04-17T17:07:53.377Z,1.03
2023-04-17T17:11:53.421Z,1.02
2023-04-17T17:15:53.294Z,1.01
2023-04-17T17:19:53.330Z,1.02
2023-04-17T17:23:53.212Z,1.01
2023-04-17T17:27:53.182Z,0.98
2023-04-17T17:31:53.203Z,1.00
2023-04-17T17:35:53.334Z,1.01
2023-04-17T17:39:53.255Z,0.99
2023-04-17T17:43:53.213Z,1.01
2023-04-17T17:47:53.185Z,0.94
2023-04-17T17:51:53.114Z,1.00
2023-04-17T17:55:53.097Z,1.01
2023-04-17T17:59:53.146Z,1.01
2023-04-17T18:03:53.566Z,0.97
2023-04-17T18:07:52.971Z,0.92
2023-04-17T18:11:52.929Z,0.94
2023-04-17T18:15:52.958Z,0.96
2023-04-17T18:19:52.859Z,0.96
2023-04-17T18:23:52.815Z,0.94
2023-04-17T18:27:52.786Z,0.97
2023-04-17T18:31:52.793Z,1.01
2023-04-17T18:35:52.702Z,1.11
2023-04-17T18:39:52.863Z,1.19
2023-04-17T18:43:52.985Z,1.26
2023-04-17T18:47:53.121Z,1.37
2023-04-17T18:51:53.150Z,1.43
2023-04-17T18:55:53.261Z,1.55
2023-04-17T19:00:00.641Z,1.63
2023-04-17T19:03:53.340Z,1.69
2023-04-17T19:07:53.300Z,1.87
2023-04-17T19:11:53.261Z,1.83
2023-04-17T19:15:53.260Z,1.72
2023-04-17T19:19:53.173Z,1.69
2023-04-17T19:23:53.123Z,1.65
2023-04-17T19:27:53.311Z,1.61
2023-04-17T19:31:53.519Z,1.55
2023-04-17T19:35:53.460Z,1.48
2023-04-17T19:39:56.403Z,1.48
2023-04-17T19:43:53.386Z,1.46
2023-04-17T19:47:53.448Z,1.48
2023-04-17T19:51:53.306Z,1.41
2023-04-17T19:55:53.281Z,1.39
2023-04-17T19:59:53.199Z,1.31
2023-04-17T20:03:53.315Z,1.31
2023-04-17T20:07:53.173Z,1.33
2023-04-17T20:11:53.083Z,1.27
2023-04-17T20:15:53.066Z,1.29
2023-04-17T20:19:53.081Z,1.27
2023-04-17T20:23:53.011Z,1.24
2023-04-17T20:27:52.967Z,1.25
2023-04-17T20:31:53.030Z,1.25
2023-04-17T20:35:52.899Z,1.22
2023-04-17T20:39:52.867Z,1.20
2023-04-17T20:43:52.826Z,1.19
2023-04-17T20:47:57.064Z,1.20
2023-04-17T20:51:52.762Z,1.17
2023-04-17T20:55:52.741Z,1.20
2023-04-17T20:59:52.684Z,1.13
2023-04-17T21:03:52.782Z,1.15
2023-04-17T21:07:52.583Z,1.14
2023-04-17T21:11:52.542Z,1.14
2023-04-17T21:15:52.682Z,1.13
2023-04-17T21:19:52.826Z,1.14
2023-04-17T21:23:52.961Z,1.15
2023-04-17T21:27:53.113Z,1.11
2023-04-17T21:31:53.374Z,1.12
2023-04-17T21:35:53.505Z,1.11
2023-04-17T21:39:53.686Z,1.07
2023-04-17T21:43:53.976Z,1.07
2023-04-17T21:47:54.151Z,1.05
2023-04-17T21:51:54.375Z,1.02
2023-04-17T21:55:54.309Z,1.04
2023-04-17T21:59:54.285Z,1.04
2023-04-17T22:03:54.292Z,1.03
2023-04-17T22:07:55.595Z,1.01
2023-04-17T22:11:54.219Z,1.00
2023-04-17T22:15:55.245Z,1.01
2023-04-17T22:19:54.116Z,1.01
2023-04-17T22:23:54.097Z,0.98
2023-04-17T22:27:54.280Z,0.96
2023-04-17T22:31:54.236Z,0.94
2023-04-17T22:35:54.233Z,0.97
2023-04-17T22:39:54.153Z,0.96
2023-04-17T22:43:54.110Z,0.92
2023-04-17T22:47:54.207Z,0.91
2023-04-17T22:51:54.038Z,0.92
2023-04-17T22:55:54.001Z,0.90
2023-04-17T22:59:53.996Z,0.91
2023-04-17T23:03:53.955Z,0.89
2023-04-17T23:07:53.905Z,0.91
2023-04-17T23:11:53.871Z,0.87
2023-04-17T23:15:53.929Z,0.85
2023-04-17T23:19:53.785Z,0.85
2023-04-17T23:23:53.981Z,0.86
2023-04-17T23:27:53.989Z,0.83
2023-04-17T23:31:53.916Z,0.84
2023-04-17T23:35:53.854Z,0.83
2023-04-17T23:39:53.823Z,0.82
2023-04-17T23:43:53.793Z,0.84
2023-04-17T23:47:53.767Z,0.83
2023-04-17T23:51:53.707Z,0.82
2023-04-17T23:55:53.657Z,0.79
2023-04-17T23:59:53.670Z,0.80
